Time;durP1;ratioP1;P1;durP2;ratioP2;P2;SDS_P1;SDS_P2;PMS_P1;PMS_P2;Temp;Humidity;BMP_temperature;BMP_pressure;BME280_temperature;BME280_humidity;BME280_pressure;Samples;Min_cycle;Max_cycle;Signal;HPM_P1;HPM_P2
2023/10/29 00:00:43;;;;;;;13.45;4.53;;;11.60;99.90;;;;;;5014649;28;20072;-66
2023/10/29 00:03:09;;;;;;;12.15;4.60;;;11.50;99.90;;;;;;4998826;28;20022;-66
2023/10/29 00:05:35;;;;;;;9.38;4.45;;;11.60;99.90;;;;;;4999086;28;20078;-66
2023/10/29 00:08:00;;;;;;;12.82;3.83;;;11.60;99.90;;;;;;4999027;28;20113;-66
2023/10/29 00:10:26;;;;;;;14.93;3.53;;;11.50;99.90;;;;;;4998097;28;20027;-68
2023/10/29 00:12:51;;;;;;;7.28;3.47;;;11.50;99.90;;;;;;4998929;28;20030;-67
2023/10/29 00:15:17;;;;;;;7.28;3.17;;;11.40;99.90;;;;;;4999007;28;20056;-66
2023/10/29 00:17:42;;;;;;;7.07;2.90;;;11.40;99.90;;;;;;4998010;28;20019;-66
2023/10/29 00:20:09;;;;;;;4.80;2.22;;;11.50;99.90;;;;;;4998021;28;20026;-67
2023/10/29 00:22:34;;;;;;;6.00;1.92;;;11.60;99.90;;;;;;4998544;28;20086;-66
2023/10/29 00:25:00;;;;;;;3.17;1.92;;;11.50;99.90;;;;;;4997992;28;20073;-66
2023/10/29 00:27:26;;;;;;;7.82;2.25;;;11.60;99.90;;;;;;4997969;28;20054;-67
2023/10/29 00:29:52;;;;;;;5.18;2.15;;;11.60;99.90;;;;;;4997726;28;20058;-66
2023/10/29 00:32:18;;;;;;;4.72;1.88;;;11.50;99.90;;;;;;4997759;28;20026;-66
2023/10/29 00:34:46;;;;;;;10.40;2.40;;;11.60;99.90;;;;;;4997514;28;20022;-66
2023/10/29 00:37:11;;;;;;;4.60;2.30;;;11.60;99.90;;;;;;4997860;28;20026;-66
2023/10/29 00:39:37;;;;;;;8.23;2.17;;;11.60;99.90;;;;;;4997649;28;20026;-66
2023/10/29 00:42:03;;;;;;;5.40;1.63;;;11.50;99.90;;;;;;4998228;28;20023;-66
2023/10/29 00:44:28;;;;;;;11.23;2.47;;;11.70;99.90;;;;;;4998661;28;20050;-66
2023/10/29 00:46:54;;;;;;;6.60;2.03;;;11.80;99.90;;;;;;4997591;28;20072;-67
2023/10/29 00:49:20;;;;;;;6.22;2.13;;;11.80;99.90;;;;;;4998237;28;20031;-67
2023/10/29 00:51:46;;;;;;;9.55;2.63;;;11.70;99.90;;;;;;5013767;28;20033;-67
2023/10/29 00:54:11;;;;;;;11.25;2.60;;;11.80;99.90;;;;;;4998185;28;20152;-66
2023/10/29 00:56:38;;;;;;;6.80;2.15;;;11.60;99.90;;;;;;4998780;28;20074;-66
2023/10/29 00:59:06;;;;;;;8.50;2.78;;;11.80;99.90;;;;;;4998399;28;20050;-67
2023/10/29 01:01:33;;;;;;;4.63;1.75;;;11.90;99.90;;;;;;5013587;28;20036;-67
2023/10/29 01:03:59;;;;;;;9.27;2.13;;;11.90;99.90;;;;;;4998338;28;20034;-67
2023/10/29 01:06:26;;;;;;;6.90;2.25;;;11.80;99.90;;;;;;4998222;28;20042;-67
2023/10/29 01:08:52;;;;;;;5.80;1.70;;;11.80;99.90;;;;;;4997477;28;20030;-67
2023/10/29 01:11:17;;;;;;;6.13;2.65;;;11.80;99.90;;;;;;4997145;28;20041;-66
2023/10/29 01:13:43;;;;;;;13.45;2.70;;;11.80;99.90;;;;;;4997826;28;20112;-66
2023/10/29 01:16:08;;;;;;;6.03;2.00;;;11.70;99.90;;;;;;4997375;28;20033;-67
2023/10/29 01:18:34;;;;;;;4.55;2.17;;;11.70;99.90;;;;;;4997679;28;20034;-67
2023/10/29 01:21:00;;;;;;;9.52;3.25;;;11.80;99.90;;;;;;4996999;28;20026;-67
2023/10/29 01:23:26;;;;;;;6.10;2.22;;;11.90;99.90;;;;;;4997755;28;20100;-67
2023/10/29 01:25:53;;;;;;;4.15;1.80;;;12.00;99.90;;;;;;4997703;28;20029;-67
2023/10/29 01:28:19;;;;;;;3.90;1.60;;;12.10;99.90;;;;;;4998364;28;20036;-67
2023/10/29 01:30:44;;;;;;;5.60;1.60;;;12.10;99.90;;;;;;4997663;28;20117;-67
2023/10/29 01:33:10;;;;;;;4.97;1.60;;;12.10;99.90;;;;;;4997347;28;20053;-67
2023/10/29 01:35:35;;;;;;;7.07;1.98;;;11.90;99.90;;;;;;4996339;28;20030;-67
2023/10/29 01:38:01;;;;;;;5.45;2.03;;;12.00;99.90;;;;;;4997823;28;20033;-67
2023/10/29 01:40:27;;;;;;;6.63;1.75;;;12.00;99.90;;;;;;4997553;28;20023;-67
2023/10/29 01:42:52;;;;;;;5.25;1.67;;;11.80;99.90;;;;;;4997587;28;20022;-67
2023/10/29 01:45:18;;;;;;;4.70;1.67;;;11.70;99.90;;;;;;4997753;28;20082;-67
2023/10/29 01:47:43;;;;;;;4.70;1.55;;;11.60;99.90;;;;;;4997760;28;20031;-67
2023/10/29 01:50:09;;;;;;;4.35;1.60;;;11.60;99.90;;;;;;4997526;28;20041;-67
2023/10/29 01:52:38;;;;;;;3.47;2.15;;;11.60;99.90;;;;;;4997787;28;20030;-67
2023/10/29 01:55:05;;;;;;;5.40;1.77;;;11.70;99.90;;;;;;4996298;28;20038;-67
2023/10/29 01:57:33;;;;;;;5.05;1.90;;;11.70;99.90;;;;;;4997973;28;20061;-67
2023/10/29 01:59:59;;;;;;;4.30;1.95;;;11.60;99.90;;;;;;5012991;28;20027;-67
2023/10/29 02:02:24;;;;;;;5.22;1.80;;;11.60;99.90;;;;;;4996376;28;20026;-67
2023/10/29 02:04:50;;;;;;;3.22;1.50;;;11.60;99.90;;;;;;4997312;28;20033;-67
2023/10/29 02:07:15;;;;;;;3.42;1.48;;;11.50;99.90;;;;;;4997361;28;20023;-67
2023/10/29 02:09:41;;;;;;;4.95;1.80;;;11.50;99.90;;;;;;4997497;28;20034;-67
2023/10/29 02:12:07;;;;;;;5.03;1.35;;;11.60;99.90;;;;;;4996484;28;20037;-67
2023/10/29 02:14:34;;;;;;;4.32;1.58;;;11.60;99.90;;;;;;4996331;28;20023;-67
2023/10/29 02:16:59;;;;;;;4.47;1.63;;;11.60;99.90;;;;;;4997544;28;20027;-67
2023/10/29 02:19:25;;;;;;;6.47;2.25;;;11.60;99.90;;;;;;4997198;28;20023;-67
2023/10/29 02:21:54;;;;;;;6.47;2.17;;;11.50;99.90;;;;;;4997600;28;20035;-67
2023/10/29 02:24:20;;;;;;;5.18;1.55;;;11.50;99.90;;;;;;4997131;28;20046;-67
2023/10/29 02:26:45;;;;;;;7.10;1.85;;;11.60;99.90;;;;;;4997212;28;20018;-67
2023/10/29 02:29:11;;;;;;;5.72;1.90;;;11.70;99.90;;;;;;4997098;28;20029;-67
2023/10/29 02:31:36;;;;;;;6.57;1.40;;;11.70;99.90;;;;;;4997151;28;20068;-67
2023/10/29 02:34:02;;;;;;;2.03;1.45;;;11.80;99.90;;;;;;4996290;28;20068;-67
2023/10/29 02:36:27;;;;;;;3.58;1.27;;;11.80;99.90;;;;;;4996154;28;20088;-67
2023/10/29 02:38:53;;;;;;;4.15;1.50;;;11.80;99.90;;;;;;4996053;28;20029;-67
2023/10/29 02:41:18;;;;;;;3.78;1.75;;;11.80;99.90;;;;;;4996299;28;20026;-67
2023/10/29 02:43:44;;;;;;;2.80;2.00;;;11.80;99.90;;;;;;4997029;28;20030;-67
2023/10/29 02:46:10;;;;;;;3.97;1.45;;;11.90;99.90;;;;;;4997221;28;20097;-67
2023/10/29 02:48:36;;;;;;;4.85;1.50;;;11.90;99.90;;;;;;5016001;28;20057;-67
2023/10/29 02:51:02;;;;;;;6.50;2.15;;;12.00;99.90;;;;;;5016713;28;20061;-67
2023/10/29 02:53:30;;;;;;;5.95;1.30;;;12.00;99.90;;;;;;4999637;28;20027;-67
2023/10/29 02:56:02;;;;;;;5.18;1.55;;;12.00;99.90;;;;;;5000730;28;20061;-67
2023/10/29 02:58:27;;;;;;;4.05;1.30;;;12.10;99.90;;;;;;4999435;28;20033;-67
2023/10/29 03:00:53;;;;;;;5.18;1.80;;;12.10;99.90;;;;;;4999479;28;20027;-64
2023/10/29 03:03:19;;;;;;;11.95;1.65;;;12.10;99.90;;;;;;4999671;28;20022;-64
2023/10/29 03:05:44;;;;;;;6.00;1.80;;;12.20;99.90;;;;;;4999355;28;20030;-64
2023/10/29 03:08:10;;;;;;;6.55;1.63;;;12.20;99.90;;;;;;5015900;28;20030;-64
2023/10/29 03:10:35;;;;;;;7.75;2.10;;;12.00;99.90;;;;;;4999314;28;20057;-64
2023/10/29 03:13:01;;;;;;;6.15;2.08;;;11.70;99.90;;;;;;4999321;28;20094;-64
2023/10/29 03:15:26;;;;;;;3.65;1.48;;;11.70;99.90;;;;;;4999044;28;20046;-64
2023/10/29 03:17:52;;;;;;;5.20;1.80;;;11.70;99.90;;;;;;5000080;28;20093;-64
2023/10/29 03:20:18;;;;;;;6.93;2.00;;;11.70;99.90;;;;;;5000240;28;20041;-64
2023/10/29 03:22:44;;;;;;;4.45;1.55;;;11.60;99.90;;;;;;5000032;28;20022;-64
2023/10/29 03:25:09;;;;;;;4.07;1.75;;;11.70;99.90;;;;;;4999597;28;20100;-64
2023/10/29 03:27:35;;;;;;;8.68;2.25;;;11.60;99.90;;;;;;5000408;28;20030;-64
2023/10/29 03:30:00;;;;;;;8.50;2.00;;;11.50;99.90;;;;;;4999184;28;20022;-64
2023/10/29 03:32:26;;;;;;;4.97;2.00;;;11.40;99.90;;;;;;4998898;28;20025;-64
2023/10/29 03:34:51;;;;;;;2.58;1.67;;;11.40;99.90;;;;;;5015345;28;20022;-64
2023/10/29 03:37:18;;;;;;;5.10;1.90;;;11.40;99.90;;;;;;4999106;28;20022;-64
2023/10/29 03:39:43;;;;;;;4.53;2.20;;;11.40;99.90;;;;;;4999985;28;20022;-64
2023/10/29 03:42:09;;;;;;;8.18;2.25;;;11.50;99.90;;;;;;4998625;28;20107;-64
2023/10/29 03:44:35;;;;;;;4.93;1.50;;;11.50;99.90;;;;;;4999521;28;20037;-64
2023/10/29 03:47:00;;;;;;;5.68;1.85;;;11.50;99.90;;;;;;4999500;28;20033;-64
2023/10/29 03:49:26;;;;;;;7.85;1.75;;;11.60;99.90;;;;;;4999543;28;20026;-64
2023/10/29 03:51:51;;;;;;;4.22;1.35;;;11.50;99.90;;;;;;4998769;28;20023;-64
2023/10/29 03:54:17;;;;;;;3.63;1.40;;;11.50;99.90;;;;;;4998682;28;20072;-64
2023/10/29 03:56:42;;;;;;;6.65;2.50;;;11.50;99.90;;;;;;4998570;28;20031;-64
2023/10/29 03:59:08;;;;;;;5.72;1.90;;;11.50;99.90;;;;;;4999183;28;20027;-64
2023/10/29 04:01:34;;;;;;;5.80;1.80;;;11.50;99.90;;;;;;4998398;28;20029;-64
2023/10/29 04:03:59;;;;;;;4.80;1.80;;;11.60;99.90;;;;;;4998534;28;20036;-64
2023/10/29 04:06:25;;;;;;;6.43;1.73;;;11.60;99.90;;;;;;4998312;28;20035;-64
2023/10/29 04:08:50;;;;;;;3.15;1.58;;;11.70;99.90;;;;;;4998396;28;20034;-65
2023/10/29 04:11:16;;;;;;;6.40;1.67;;;11.80;99.90;;;;;;4998239;28;20026;-65
2023/10/29 04:13:41;;;;;;;3.40;1.40;;;11.90;99.90;;;;;;4998989;28;20062;-65
2023/10/29 04:16:07;;;;;;;6.15;1.48;;;11.90;99.90;;;;;;4998401;28;20052;-65
2023/10/29 04:18:33;;;;;;;3.88;1.75;;;11.80;99.90;;;;;;4997955;28;20022;-67
2023/10/29 04:21:03;;;;;;;4.22;1.80;;;11.90;99.90;;;;;;4998939;28;20018;-67
2023/10/29 04:23:29;;;;;;;4.55;1.52;;;11.70;99.90;;;;;;4998194;28;20030;-67
2023/10/29 04:25:54;;;;;;;3.22;1.17;;;11.70;99.90;;;;;;4998182;28;20026;-67
2023/10/29 04:28:20;;;;;;;5.65;2.50;;;11.80;99.90;;;;;;4997763;28;20034;-67
2023/10/29 04:30:46;;;;;;;5.22;1.75;;;11.80;99.90;;;;;;4997864;28;20022;-67
2023/10/29 04:33:12;;;;;;;6.03;1.13;;;11.70;99.90;;;;;;4998664;28;20042;-67
2023/10/29 04:35:37;;;;;;;4.57;1.58;;;11.70;99.90;;;;;;4998886;28;20037;-67
2023/10/29 04:38:03;;;;;;;4.70;1.65;;;11.80;99.90;;;;;;4997638;28;20112;-67
2023/10/29 04:40:28;;;;;;;8.48;1.98;;;11.80;99.90;;;;;;5013810;28;20030;-67
2023/10/29 04:42:54;;;;;;;3.13;1.70;;;11.80;99.90;;;;;;4998934;28;20042;-67
2023/10/29 04:45:19;;;;;;;7.03;1.70;;;11.80;99.90;;;;;;4998517;28;20093;-67
2023/10/29 04:47:45;;;;;;;7.70;1.52;;;11.60;99.90;;;;;;4998268;28;20084;-67
2023/10/29 04:50:10;;;;;;;6.18;1.40;;;11.60;99.90;;;;;;4998365;28;20034;-67
2023/10/29 04:52:36;;;;;;;3.47;1.50;;;11.70;99.90;;;;;;4998251;28;20032;-67
2023/10/29 04:55:01;;;;;;;5.50;1.48;;;11.70;99.90;;;;;;4997414;28;20108;-67
2023/10/29 04:57:30;;;;;;;5.15;2.28;;;11.60;99.90;;;;;;4997313;28;20117;-67
2023/10/29 04:59:56;;;;;;;5.68;2.03;;;11.50;99.90;;;;;;4998385;28;20022;-67
2023/10/29 05:02:24;;;;;;;2.55;1.73;;;11.60;99.90;;;;;;4997275;28;20076;-67
2023/10/29 05:04:52;;;;;;;9.43;1.50;;;11.70;99.90;;;;;;4997215;28;20099;-67
2023/10/29 05:07:18;;;;;;;4.95;1.67;;;11.80;99.90;;;;;;4997359;28;20109;-67
2023/10/29 05:09:44;;;;;;;3.42;1.45;;;11.80;99.90;;;;;;4996780;28;20042;-67
2023/10/29 05:12:09;;;;;;;2.58;1.65;;;11.80;99.90;;;;;;4997352;28;20041;-67
2023/10/29 05:14:35;;;;;;;5.75;1.60;;;11.90;99.90;;;;;;4997908;28;20033;-67
2023/10/29 05:17:01;;;;;;;2.25;1.58;;;11.80;99.90;;;;;;4996951;28;20031;-67
2023/10/29 05:19:28;;;;;;;3.50;1.45;;;11.80;99.90;;;;;;4997044;28;20025;-67
2023/10/29 05:21:53;;;;;;;3.72;1.40;;;11.90;99.90;;;;;;4997919;28;20080;-67
2023/10/29 05:24:19;;;;;;;3.53;2.22;;;11.80;99.90;;;;;;4998208;28;20022;-67
2023/10/29 05:26:44;;;;;;;6.10;1.95;;;11.70;99.90;;;;;;4997785;28;20061;-67
2023/10/29 05:29:10;;;;;;;3.70;1.27;;;11.80;99.90;;;;;;4998052;28;20033;-67
2023/10/29 05:31:36;;;;;;;5.53;1.35;;;11.90;99.90;;;;;;4996763;28;20026;-67
2023/10/29 05:34:01;;;;;;;2.97;1.35;;;11.90;99.90;;;;;;4996817;28;20018;-67
2023/10/29 05:36:27;;;;;;;4.28;1.45;;;12.00;99.90;;;;;;4997516;28;20014;-67
2023/10/29 05:38:53;;;;;;;2.88;1.50;;;12.00;99.90;;;;;;4997561;28;20026;-67
2023/10/29 05:41:19;;;;;;;2.50;1.30;;;11.90;99.90;;;;;;4997604;28;20022;-67
2023/10/29 05:43:44;;;;;;;2.00;1.30;;;11.90;99.90;;;;;;4996624;28;20029;-67
2023/10/29 05:46:13;;;;;;;3.22;1.40;;;11.90;99.90;;;;;;5012973;28;20030;-67
2023/10/29 05:48:39;;;;;;;6.88;1.40;;;12.00;99.90;;;;;;4997472;28;20033;-67
2023/10/29 05:51:05;;;;;;;4.60;1.30;;;12.00;99.90;;;;;;4996664;28;20026;-67
2023/10/29 05:53:30;;;;;;;3.53;1.38;;;11.90;99.90;;;;;;4997458;28;20120;-67
2023/10/29 05:55:56;;;;;;;4.00;1.70;;;11.80;99.90;;;;;;4997707;28;20038;-69
2023/10/29 05:58:23;;;;;;;3.30;1.42;;;11.70;99.90;;;;;;4997484;28;20027;-67
2023/10/29 06:00:50;;;;;;;2.08;1.45;;;11.70;99.90;;;;;;4997404;28;20018;-67
2023/10/29 06:03:15;;;;;;;2.00;1.40;;;11.70;99.90;;;;;;4997383;28;20022;-67
2023/10/29 06:05:41;;;;;;;5.25;1.50;;;11.70;99.90;;;;;;4997712;28;20057;-67
2023/10/29 06:08:07;;;;;;;6.75;2.05;;;11.70;99.90;;;;;;4997373;28;20030;-67
2023/10/29 06:10:32;;;;;;;6.57;2.20;;;11.60;99.90;;;;;;4996796;28;20034;-68
2023/10/29 06:12:59;;;;;;;3.88;1.42;;;11.60;99.90;;;;;;4997543;28;20027;-67
2023/10/29 06:15:25;;;;;;;5.13;1.35;;;11.60;99.90;;;;;;4997231;28;20050;-64
2023/10/29 06:17:53;;;;;;;9.15;1.50;;;11.60;99.90;;;;;;4997102;28;20031;-64
2023/10/29 06:20:22;;;;;;;5.30;1.48;;;11.60;99.90;;;;;;4996348;28;20022;-64
2023/10/29 06:22:47;;;;;;;4.55;1.38;;;11.60;99.90;;;;;;5000159;28;20022;-65
2023/10/29 06:25:14;;;;;;;6.93;1.33;;;11.60;99.90;;;;;;5000917;28;20037;-65
2023/10/29 06:27:40;;;;;;;4.50;1.60;;;11.70;99.90;;;;;;5001038;28;20026;-65
2023/10/29 06:30:06;;;;;;;2.85;1.30;;;11.70;99.90;;;;;;5000095;28;20077;-65
2023/10/29 06:32:32;;;;;;;5.70;1.50;;;11.60;99.90;;;;;;5000887;28;20037;-65
2023/10/29 06:34:57;;;;;;;3.58;1.77;;;11.50;99.90;;;;;;5016334;28;20113;-65
2023/10/29 06:37:23;;;;;;;6.45;1.40;;;11.50;99.90;;;;;;4999766;28;20023;-65
2023/10/29 06:39:48;;;;;;;3.70;1.55;;;11.60;99.90;;;;;;4999823;28;20030;-65
2023/10/29 06:42:14;;;;;;;4.00;1.55;;;11.70;99.90;;;;;;5001280;28;20074;-65
2023/10/29 06:44:39;;;;;;;7.15;1.40;;;11.70;99.90;;;;;;5000551;28;20030;-65
2023/10/29 06:47:05;;;;;;;1.85;1.00;;;11.80;99.90;;;;;;5000780;28;20069;-65
2023/10/29 06:49:31;;;;;;;3.38;1.25;;;11.90;99.90;;;;;;5000269;28;20041;-65
2023/10/29 06:51:56;;;;;;;3.38;1.30;;;11.90;99.90;;;;;;5001079;28;20077;-65
2023/10/29 06:54:22;;;;;;;3.70;1.40;;;11.90;99.90;;;;;;5000385;28;20027;-65
2023/10/29 06:56:48;;;;;;;3.58;1.25;;;11.80;99.90;;;;;;5016347;28;20037;-65
2023/10/29 06:59:14;;;;;;;1.77;1.20;;;11.80;99.90;;;;;;4999432;28;20023;-65
2023/10/29 07:01:39;;;;;;;1.88;1.00;;;11.80;99.90;;;;;;5000448;28;20094;-65
2023/10/29 07:04:06;;;;;;;3.88;1.10;;;11.80;99.90;;;;;;5000550;28;20018;-65
2023/10/29 07:06:32;;;;;;;5.00;1.15;;;11.80;99.90;;;;;;5000487;28;20030;-65
2023/10/29 07:08:57;;;;;;;2.00;1.17;;;11.80;99.90;;;;;;5000176;28;20022;-65
2023/10/29 07:11:23;;;;;;;11.98;1.92;;;11.90;99.90;;;;;;5000287;28;20022;-65
2023/10/29 07:13:49;;;;;;;3.75;1.10;;;11.90;99.90;;;;;;5000255;28;20054;-65
2023/10/29 07:16:16;;;;;;;4.55;2.10;;;12.00;99.90;;;;;;4999052;28;20064;-65
2023/10/29 07:18:42;;;;;;;2.75;1.27;;;11.90;99.90;;;;;;5000055;28;20050;-65
2023/10/29 07:21:08;;;;;;;6.80;2.05;;;12.00;99.90;;;;;;4999984;28;20023;-65
2023/10/29 07:23:33;;;;;;;2.80;1.65;;;12.00;99.90;;;;;;4999081;28;20018;-65
2023/10/29 07:25:59;;;;;;;6.85;1.40;;;12.00;99.90;;;;;;4999942;28;20030;-65
2023/10/29 07:28:24;;;;;;;1.73;1.15;;;12.10;99.90;;;;;;5016445;28;20100;-66
2023/10/29 07:30:50;;;;;;;2.70;1.50;;;12.20;99.90;;;;;;4999455;28;20050;-65
2023/10/29 07:33:15;;;;;;;4.82;1.65;;;12.10;99.90;;;;;;4998412;28;20023;-65
2023/10/29 07:35:41;;;;;;;8.75;2.72;;;12.10;99.90;;;;;;4998647;28;20026;-64
2023/10/29 07:38:10;;;;;;;3.47;1.90;;;12.00;99.90;;;;;;4998863;28;20053;-64
2023/10/29 07:40:38;;;;;;;2.90;1.40;;;12.10;99.90;;;;;;4998691;28;20025;-64
2023/10/29 07:43:04;;;;;;;2.72;1.50;;;12.20;99.90;;;;;;4999642;28;20018;-64
2023/10/29 07:45:31;;;;;;;4.68;1.75;;;12.10;99.90;;;;;;4999403;28;20029;-64
2023/10/29 07:47:57;;;;;;;4.55;1.65;;;12.10;99.90;;;;;;4986359;28;20019;-65
2023/10/29 07:50:22;;;;;;;3.40;2.17;;;12.00;99.90;;;;;;4984356;28;20026;-65
2023/10/29 07:52:48;;;;;;;8.20;1.83;;;11.90;99.90;;;;;;4997884;28;20073;-65
2023/10/29 07:55:13;;;;;;;4.82;2.38;;;11.90;99.90;;;;;;4999393;28;20038;-65
2023/10/29 07:57:39;;;;;;;4.32;2.42;;;11.90;99.90;;;;;;4998437;28;20026;-64
2023/10/29 08:00:15;;;;;;;6.25;2.00;;;11.80;99.90;;;;;;4998415;28;20080;-65
2023/10/29 08:02:41;;;;;;;4.70;2.17;;;11.90;99.90;;;;;;4983597;28;20050;-64
2023/10/29 08:05:08;;;;;;;5.47;2.30;;;12.00;99.90;;;;;;4979986;28;20018;-65
2023/10/29 08:07:34;;;;;;;9.30;2.40;;;12.10;99.90;;;;;;4994742;28;20027;-65
2023/10/29 08:10:00;;;;;;;4.55;2.90;;;12.10;99.90;;;;;;4999107;28;20045;-64
2023/10/29 08:12:28;;;;;;;3.58;1.58;;;12.00;99.90;;;;;;4999068;28;20030;-64
2023/10/29 08:14:54;;;;;;;6.22;2.28;;;12.10;99.90;;;;;;4996426;28;20026;-64
2023/10/29 08:17:21;;;;;;;5.55;2.33;;;12.10;99.90;;;;;;4998558;28;20077;-64
2023/10/29 08:19:47;;;;;;;4.90;2.00;;;12.10;99.90;;;;;;4995833;28;20030;-64
2023/10/29 08:22:13;;;;;;;4.82;1.88;;;12.30;99.90;;;;;;4978843;28;20081;-64
2023/10/29 08:24:39;;;;;;;4.53;1.85;;;12.30;99.90;;;;;;4978376;28;20030;-64
2023/10/29 08:27:06;;;;;;;2.28;1.50;;;12.40;99.90;;;;;;4978402;28;20058;-64
2023/10/29 08:29:34;;;;;;;5.53;1.60;;;12.40;99.90;;;;;;4979234;28;20034;-64
2023/10/29 08:32:00;;;;;;;3.70;1.70;;;12.30;99.90;;;;;;4978719;28;20030;-64
2023/10/29 08:34:26;;;;;;;3.65;1.35;;;12.40;99.90;;;;;;4985559;28;20109;-64
2023/10/29 08:36:52;;;;;;;2.47;1.63;;;12.40;99.90;;;;;;4986277;28;20122;-64
2023/10/29 08:39:21;;;;;;;5.10;1.58;;;12.50;99.90;;;;;;4991918;28;20047;-64
2023/10/29 08:41:50;;;;;;;2.33;1.50;;;12.50;99.90;;;;;;4978392;28;20027;-64
2023/10/29 08:44:18;;;;;;;3.60;1.60;;;12.50;99.90;;;;;;4978725;28;20029;-64
2023/10/29 08:46:44;;;;;;;2.45;1.20;;;12.50;99.90;;;;;;4978982;28;20023;-64
2023/10/29 08:49:11;;;;;;;2.53;1.23;;;12.50;99.90;;;;;;4988971;28;20058;-64
2023/10/29 08:51:36;;;;;;;3.35;1.52;;;12.70;99.90;;;;;;4989586;28;20079;-64
2023/10/29 08:54:03;;;;;;;2.22;1.60;;;12.70;99.90;;;;;;4990922;28;20065;-65
2023/10/29 08:56:32;;;;;;;4.68;1.63;;;12.80;99.90;;;;;;4997924;28;20042;-65
2023/10/29 08:58:57;;;;;;;3.78;2.33;;;12.80;99.90;;;;;;4985627;28;20030;-65
2023/10/29 09:01:23;;;;;;;4.20;1.92;;;12.90;99.90;;;;;;4979836;28;20038;-65
2023/10/29 09:03:48;;;;;;;8.98;1.70;;;12.80;99.90;;;;;;4997177;28;20084;-65
2023/10/29 09:06:14;;;;;;;2.28;1.42;;;12.80;99.90;;;;;;4998035;28;20023;-64
2023/10/29 09:08:40;;;;;;;2.38;1.50;;;12.90;99.90;;;;;;4998050;28;20086;-64
2023/10/29 09:11:16;;;;;;;2.63;1.83;;;12.90;99.90;;;;;;4998360;28;20022;-64
2023/10/29 09:13:42;;;;;;;3.45;1.65;;;12.80;99.90;;;;;;4997637;28;20109;-64
2023/10/29 09:16:08;;;;;;;1.55;1.40;;;12.80;99.90;;;;;;4981028;28;20061;-64
2023/10/29 09:18:34;;;;;;;3.80;1.73;;;12.80;99.90;;;;;;4978417;28;20031;-64
2023/10/29 09:21:00;;;;;;;5.03;1.95;;;12.70;99.90;;;;;;4977873;28;20113;-64
2023/10/29 09:23:27;;;;;;;13.77;2.30;;;12.70;99.90;;;;;;4977596;28;20023;-64
2023/10/29 09:25:52;;;;;;;3.00;1.88;;;12.70;99.90;;;;;;4979190;28;20046;-65
2023/10/29 09:28:20;;;;;;;5.32;2.22;;;12.70;99.90;;;;;;4997359;28;20065;-65
2023/10/29 09:30:46;;;;;;;5.38;2.30;;;12.60;99.90;;;;;;4998059;28;20026;-66
2023/10/29 09:33:13;;;;;;;4.57;2.47;;;12.70;99.90;;;;;;4997240;28;20114;-65
2023/10/29 09:35:39;;;;;;;4.32;2.30;;;12.70;99.90;;;;;;4997025;28;20121;-65
2023/10/29 09:38:05;;;;;;;3.25;2.25;;;12.70;99.90;;;;;;4983679;28;20019;-63
2023/10/29 09:40:30;;;;;;;8.00;1.92;;;12.60;99.90;;;;;;4997377;28;20025;-64
2023/10/29 09:42:56;;;;;;;5.63;2.10;;;12.60;99.90;;;;;;4997683;28;20061;-63
2023/10/29 09:45:26;;;;;;;2.70;2.22;;;12.60;99.90;;;;;;4996685;28;20169;-63
2023/10/29 09:47:52;;;;;;;5.45;2.30;;;12.60;99.90;;;;;;4997874;28;20030;-64
2023/10/29 09:50:24;;;;;;;2.38;2.17;;;12.80;99.90;;;;;;4996639;28;20117;-64
2023/10/29 09:52:50;;;;;;;4.00;1.80;;;12.80;99.90;;;;;;4997473;28;20026;-63
2023/10/29 09:55:19;;;;;;;2.40;1.70;;;12.90;99.90;;;;;;4996811;28;20042;-64
2023/10/29 09:57:44;;;;;;;2.38;2.05;;;13.00;99.90;;;;;;5000666;28;20034;-64
2023/10/29 10:00:11;;;;;;;3.80;1.98;;;13.00;99.90;;;;;;5001721;28;20093;-64
2023/10/29 10:02:52;;;;;;;5.13;2.72;;;13.00;99.90;;;;;;5001425;28;20060;-63
2023/10/29 10:05:20;;;;;;;3.10;1.77;;;12.90;99.90;;;;;;5001446;28;20031;-63
2023/10/29 10:07:46;;;;;;;3.38;2.00;;;12.90;99.90;;;;;;5001536;28;20022;-64
2023/10/29 10:10:12;;;;;;;6.47;2.47;;;12.90;99.90;;;;;;5000837;28;20045;-64
2023/10/29 10:12:46;;;;;;;3.80;2.10;;;12.90;99.90;;;;;;5000629;28;20030;-64
2023/10/29 10:15:13;;;;;;;6.07;2.13;;;13.00;99.90;;;;;;5000339;28;20037;-64
2023/10/29 10:17:39;;;;;;;2.70;2.08;;;13.20;99.90;;;;;;5000307;28;20022;-64
2023/10/29 10:20:06;;;;;;;5.07;1.80;;;13.20;99.90;;;;;;4999674;28;20027;-64
2023/10/29 10:22:35;;;;;;;3.67;1.67;;;13.30;99.90;;;;;;4999882;28;20197;-64
2023/10/29 10:25:00;;;;;;;2.80;1.63;;;13.40;99.90;;;;;;5000148;28;20022;-64
2023/10/29 10:27:27;;;;;;;4.15;2.00;;;13.40;99.90;;;;;;5000983;28;20078;-65
2023/10/29 10:29:53;;;;;;;4.28;1.90;;;13.50;99.90;;;;;;5000940;28;20026;-64
2023/10/29 10:32:24;;;;;;;5.40;1.80;;;13.20;99.90;;;;;;5001161;28;20056;-64
2023/10/29 10:34:52;;;;;;;3.50;1.60;;;13.20;99.90;;;;;;4981597;28;20030;-64
2023/10/29 10:37:18;;;;;;;4.18;1.67;;;13.20;99.90;;;;;;4988770;28;20106;-64
2023/10/29 10:39:43;;;;;;;7.38;2.10;;;13.30;99.90;;;;;;5000296;28;20054;-64
2023/10/29 10:42:09;;;;;;;2.25;1.70;;;13.30;99.90;;;;;;4999908;28;20014;-65
2023/10/29 10:44:36;;;;;;;4.00;1.90;;;13.30;99.90;;;;;;5000090;28;20042;-64
2023/10/29 10:47:03;;;;;;;3.75;1.67;;;13.40;99.90;;;;;;4999774;28;20073;-64
2023/10/29 10:49:31;;;;;;;2.53;1.80;;;13.20;99.90;;;;;;4999023;28;20029;-64
2023/10/29 10:51:58;;;;;;;3.38;2.20;;;13.20;99.90;;;;;;4991372;28;20027;-64
2023/10/29 10:54:25;;;;;;;7.00;2.05;;;13.10;99.90;;;;;;4991488;28;20019;-64
2023/10/29 10:56:53;;;;;;;7.72;2.47;;;13.10;99.90;;;;;;5004147;23;20077;-66
2023/10/29 10:59:19;;;;;;;3.90;2.47;;;13.00;99.90;;;;;;5023686;28;20088;-67
2023/10/29 11:01:46;;;;;;;3.05;2.67;;;13.00;99.90;;;;;;5014514;28;20053;-68
2023/10/29 11:04:12;;;;;;;5.88;1.85;;;13.00;99.90;;;;;;5020035;28;20026;-67
2023/10/29 11:06:39;;;;;;;7.30;2.30;;;13.00;99.90;;;;;;5035279;28;20029;-67
2023/10/29 11:09:12;;;;;;;6.97;2.03;;;13.10;99.90;;;;;;5037017;28;20025;-63
2023/10/29 11:11:55;;;;;;;3.53;1.85;;;13.00;99.90;;;;;;5031439;28;20045;-66
2023/10/29 11:14:22;;;;;;;5.97;2.35;;;13.00;99.90;;;;;;5039559;28;20026;-67
2023/10/29 11:16:55;;;;;;;5.35;2.70;;;13.00;99.90;;;;;;5039152;28;20028;-67
2023/10/29 11:19:47;;;;;;;4.13;2.10;;;13.00;99.90;;;;;;5036874;28;20022;-68
2023/10/29 11:22:13;;;;;;;7.72;3.20;;;12.90;99.90;;;;;;5038127;28;20029;-69
2023/10/29 11:24:40;;;;;;;7.38;2.70;;;12.90;99.90;;;;;;5039022;28;20112;-69
2023/10/29 11:27:33;;;;;;;6.05;3.80;;;12.80;99.90;;;;;;5038626;28;20021;-69
2023/10/29 11:30:20;;;;;;;6.47;3.05;;;12.80;99.90;;;;;;5025800;28;20022;-68
2023/10/29 11:33:17;;;;;;;6.95;3.40;;;12.90;99.90;;;;;;5039747;28;20024;-66
2023/10/29 11:35:43;;;;;;;7.32;3.88;;;12.90;99.90;;;;;;5028813;28;20024;-69
2023/10/29 11:38:37;;;;;;;5.13;2.90;;;12.90;99.90;;;;;;5033393;28;20112;-69
2023/10/29 11:41:35;;;;;;;4.15;2.85;;;13.00;99.90;;;;;;5030316;28;20108;-68
2023/10/29 11:44:22;;;;;;;5.93;3.67;;;13.00;99.90;;;;;;5034120;28;20021;-68
2023/10/29 11:47:02;;;;;;;9.13;4.03;;;12.90;99.90;;;;;;5044105;28;20017;-68
2023/10/29 11:49:49;;;;;;;5.93;3.58;;;12.90;99.90;;;;;;5039396;28;20022;-68
2023/10/29 11:52:15;;;;;;;6.72;2.78;;;13.00;99.90;;;;;;5046417;28;20040;-68
2023/10/29 11:54:46;;;;;;;7.43;3.45;;;13.10;99.90;;;;;;5038243;28;20029;-67
2023/10/29 11:57:13;;;;;;;;;;;13.10;99.90;;;;;;5054249;28;20152;-68
2023/10/29 11:59:54;;;;;;;6.82;3.45;;;13.00;99.90;;;;;;5035287;28;19963;-68
2023/10/29 12:02:21;;;;;;;18.25;5.28;;;12.90;99.90;;;;;;5037457;28;20097;-68
2023/10/29 12:04:47;;;;;;;14.32;6.15;;;12.80;99.90;;;;;;5038647;28;20093;-68
2023/10/29 12:07:32;;;;;;;11.95;6.63;;;12.80;99.90;;;;;;5033993;28;20073;-68
2023/10/29 12:10:02;;;;;;;16.55;6.20;;;12.80;99.90;;;;;;5034583;28;20053;-68
2023/10/29 12:12:28;;;;;;;7.32;3.65;;;12.90;99.90;;;;;;5018121;28;20043;-68
2023/10/29 12:14:54;;;;;;;14.60;5.28;;;12.90;99.90;;;;;;5033795;28;20030;-68
2023/10/29 12:17:19;;;;;;;19.67;6.15;;;13.00;99.90;;;;;;5032873;28;20061;-68
2023/10/29 12:19:45;;;;;;;12.38;4.38;;;13.10;99.90;;;;;;5017948;28;20050;-68
2023/10/29 12:22:19;;;;;;;19.10;6.45;;;13.10;99.90;;;;;;5032568;28;20025;-69
2023/10/29 12:24:46;;;;;;;12.32;5.15;;;13.00;99.90;;;;;;5037431;28;20047;-69
2023/10/29 12:27:13;;;;;;;4.88;2.90;;;13.10;99.90;;;;;;5037319;28;20025;-69
2023/10/29 12:29:39;;;;;;;7.15;3.03;;;13.10;99.90;;;;;;5038164;28;20028;-69
2023/10/29 12:32:06;;;;;;;5.28;2.50;;;13.10;99.90;;;;;;5036899;28;20021;-69
2023/10/29 12:34:53;;;;;;;4.95;3.13;;;13.00;99.90;;;;;;5037531;28;20025;-69
2023/10/29 12:37:20;;;;;;;4.50;2.72;;;13.20;99.90;;;;;;5037733;28;20040;-69
2023/10/29 12:39:46;;;;;;;4.75;2.03;;;13.20;99.90;;;;;;5037175;28;20040;-69
2023/10/29 12:42:12;;;;;;;5.38;3.83;;;13.30;99.90;;;;;;5030355;28;20028;-69
2023/10/29 12:44:38;;;;;;;3.92;2.53;;;13.10;99.90;;;;;;5053753;28;20053;-67